Pagrindinis puslapis
METAR-TAF:

METAR-TAF

Oro uostai :

Subic Bay, Filipinai

platuma: 14-48N, ilguma: 120-16E, Aukštis: 18 m

Dabartinis oras

Ataskaita buvo paskelbta 47 minutes, ne 07:00 UTC
Vėjas 15 kt iš Rytų/Šiaurės Rytų
Temperatūra 31°C
Drėgmė 46%
Slėgis 1014 hPa
Matomumas 10 km arba daugiau
Išsisklaidę debesys ne aukštis 2000 ft

METAR: RPLB 230700Z 06015KT 9999 SCT020 31/18 Q1014 NOSIG RMK A2994

Laikas: 15:47 (07:47 UTC)

Prognozė

Ataskaita buvo paskelbta 2 valandos ir 47 minutes, ne 05:00 UTC
Prognozė galioja nuo 23 metu 06 UTC su 24 metu 06 UTC
Vėjas 15 kt iš Rytų/Šiaurės Rytų
Matomumas 10 km arba daugiau
Mažai debesys ne aukštis 2000 ft
Laikinai
nuo 23 metu 06 UTC su 23 metu 12 UTC
Vėjas 17 kt iš Rytų/Šiaurės Rytų

TAF: RPLB 230500Z 2306/2406 06015KT 9999 FEW020 TX31/2306Z TN21/2321Z TEMPO 2306/2312 06017KT

Orai ataskaitas ir orų prognozės (METAR, TAF).

turimą stotys yra geltonos ir raudonos taškus žemėlapyje.

Perkelti pele per norėdami pamatyti stoties vardą.

Tada spustelėkite, norėdami matyti oro stebėjimo ir prognozės.

Norėdami pakeisti žemėlapį: spustelėkite ant žalios mygtukų su juodo kryžiaus žemyn,; žalią mygtuką su brūkšneliu, jei norite nutolinti; arba žalių rodyklių gretimoms žemėlapius.


METAR-TAF: